createdAt,value
2024-03-19T00:02:54.764Z,100665.76893439342
2024-03-19T00:05:50.332Z,100667.29743230414
2024-03-19T00:08:45.880Z,100671.48960269934
2024-03-19T00:11:41.462Z,100674.2190189376
2024-03-19T00:14:37.043Z,100676.63061554593
2024-03-19T00:17:32.604Z,100672.26965489244
2024-03-19T00:20:31.185Z,100674.9415349159
2024-03-19T00:23:28.672Z,100679.06361651018
2024-03-19T00:26:28.236Z,100672.14441812198
2024-03-19T00:29:25.809Z,100674.5385047827
2024-03-19T00:32:22.370Z,100673.67259214718
2024-03-19T00:35:18.984Z,100678.66607751432
2024-03-19T00:38:15.549Z,100676.21387877973
2024-03-19T00:41:11.025Z,100664.80834655825
2024-03-19T00:44:07.579Z,100671.27376258044
2024-03-19T00:47:04.153Z,100671.5734108149
2024-03-19T00:50:00.697Z,100668.16930304156
2024-03-19T00:52:56.261Z,100671.0008748069
2024-03-19T00:55:51.864Z,100674.94375718113
2024-03-19T00:58:47.406Z,100678.443931133
2024-03-19T01:01:42.971Z,100681.04627955078
2024-03-19T01:04:44.391Z,100682.03770987876
2024-03-19T01:07:42.072Z,100689.58778655173
2024-03-19T01:10:39.612Z,100688.28094241861
2024-03-19T01:13:36.153Z,100691.34912833426
2024-03-19T01:16:31.701Z,100694.61874977763
2024-03-19T01:19:28.297Z,100691.3129765114
2024-03-19T01:22:23.848Z,100693.35059412233
2024-03-19T01:25:19.397Z,100690.9163292335
2024-03-19T01:28:15.969Z,100696.74957157043
2024-03-19T01:31:11.509Z,100696.97068464056
2024-03-19T01:34:07.052Z,100694.99865486105
2024-03-19T01:37:02.657Z,100694.68168310203
2024-03-19T01:39:58.230Z,100690.38918857074
2024-03-19T01:42:55.946Z,100681.99400451605
2024-03-19T01:46:16.259Z,100689.4053825449
2024-03-19T01:49:12.826Z,100688.74903371993
2024-03-19T01:52:09.397Z,100675.28348488294
2024-03-19T01:55:06.934Z,100683.59797186161
2024-03-19T01:58:02.502Z,100681.6783976324
2024-03-19T02:00:58.042Z,100676.83899134495
2024-03-19T02:03:54.604Z,100676.23933664494
2024-03-19T02:06:52.183Z,100680.72899213205
2024-03-19T02:09:50.721Z,100676.9896082208
2024-03-19T02:12:46.312Z,100679.1308601702
2024-03-19T02:15:43.857Z,100683.1956181545
2024-03-19T02:18:39.434Z,100683.56883011502
2024-03-19T02:21:34.958Z,100687.67368449889
2024-03-19T02:24:32.537Z,100688.54600510297
2024-03-19T02:27:28.075Z,100686.65345576394
2024-03-19T02:30:25.626Z,100691.59568581436
2024-03-19T02:33:21.163Z,100700.0442911639
2024-03-19T02:36:16.767Z,100702.13792677499
2024-03-19T02:39:15.712Z,100699.02729775589
2024-03-19T02:42:11.860Z,100701.68041629382
2024-03-19T02:45:09.779Z,100705.5498855327
2024-03-19T02:48:06.035Z,100704.70056056746
2024-03-19T02:51:01.511Z,100706.30075396168
2024-03-19T02:53:59.116Z,100705.90789942365
2024-03-19T02:56:54.687Z,100703.74223711458
2024-03-19T02:59:50.262Z,100711.5677224345
2024-03-19T03:02:45.819Z,100712.53766516375
2024-03-19T03:05:45.352Z,100718.32495303478
2024-03-19T03:08:40.930Z,100713.26553681654
2024-03-19T03:11:37.480Z,100718.04165198203
2024-03-19T03:14:34.057Z,100720.17493158141
2024-03-19T03:17:30.623Z,100712.86683227055
2024-03-19T03:20:26.145Z,100709.79149437434
2024-03-19T03:23:21.685Z,100719.58120942842
2024-03-19T03:26:17.297Z,100721.86531057199
2024-03-19T03:29:12.832Z,100716.42560847061
2024-03-19T03:32:08.391Z,100724.93363192136
2024-03-19T03:35:04.962Z,100729.304931337
2024-03-19T03:38:00.562Z,100733.21864944418
2024-03-19T03:40:57.033Z,100726.11613195237
2024-03-19T03:43:52.661Z,100735.15841335754
2024-03-19T03:46:48.204Z,100742.1687613891
2024-03-19T03:49:43.759Z,100734.81732767106
2024-03-19T03:52:41.326Z,100745.64082265076
2024-03-19T03:55:37.905Z,100751.54526820322
2024-03-19T03:58:33.401Z,100742.44911630459
2024-03-19T04:01:29.949Z,100751.50569618124
2024-03-19T04:04:25.565Z,100755.28820775056
2024-03-19T04:07:22.116Z,100759.99640888345
2024-03-19T04:10:18.659Z,100767.21372141935
2024-03-19T04:13:16.228Z,100763.88348360916
2024-03-19T04:16:12.786Z,100765.74507259765
2024-03-19T04:19:09.342Z,100770.29982127025
2024-03-19T04:22:05.930Z,100777.09153380954
2024-03-19T04:25:03.470Z,100780.6201853907
2024-03-19T04:27:59.020Z,100784.59831764236
2024-03-19T04:30:55.581Z,100783.73434094955
2024-03-19T04:34:03.224Z,100783.40107843888
2024-03-19T04:36:59.640Z,100793.16666334016
2024-03-19T04:39:56.269Z,100793.5292264869
2024-03-19T04:42:52.809Z,100796.7785495647
2024-03-19T04:45:48.354Z,100804.38687138786
2024-03-19T04:48:43.910Z,100809.8328083625
2024-03-19T04:51:40.444Z,100809.81582298181
2024-03-19T04:54:36.035Z,100811.55411195745
2024-03-19T04:57:31.563Z,100819.53192479204
2024-03-19T05:00:27.166Z,100829.94315948604
2024-03-19T05:03:23.712Z,100831.40388809553
2024-03-19T05:06:19.300Z,100837.99680087918
2024-03-19T05:09:15.831Z,100834.78236409587
2024-03-19T05:12:11.387Z,100842.65540259425
2024-03-19T05:15:07.946Z,100847.68433381664
2024-03-19T05:18:03.519Z,100850.7089885834
2024-03-19T05:21:00.072Z,100854.31472073159
2024-03-19T05:23:56.662Z,100857.36711395773
2024-03-19T05:26:52.197Z,100859.35429777461
2024-03-19T05:29:48.747Z,100873.95628291773
2024-03-19T05:32:45.409Z,100876.11282804054
2024-03-19T05:35:42.884Z,100878.18908944588
2024-03-19T05:38:38.404Z,100870.71914989305
2024-03-19T05:41:34.007Z,100876.61223458179
2024-03-19T05:44:30.525Z,100892.35405240716
2024-03-19T05:47:26.146Z,100888.94629325217
2024-03-19T05:50:23.654Z,100891.03197759409
2024-03-19T05:53:22.716Z,100892.26091214076
2024-03-19T05:59:29.388Z,100903.39676716724
2024-03-19T06:02:24.852Z,100903.35492199773
2024-03-19T06:05:20.775Z,100912.78492464255
2024-03-19T06:08:16.981Z,100910.18940284212
2024-03-19T06:11:13.550Z,100908.61883899213
2024-03-19T06:14:10.121Z,100912.21802118585
2024-03-19T06:17:07.687Z,100916.15858523575
2024-03-19T06:20:05.238Z,100914.06110787326
2024-03-19T06:23:02.767Z,100917.08838444196
2024-03-19T06:25:59.312Z,100922.77165002526
2024-03-19T06:28:55.908Z,100934.15860139485
2024-03-19T06:31:51.425Z,100929.25739024635
2024-03-19T06:34:47.021Z,100942.59626228648
2024-03-19T06:37:45.565Z,100935.20027792401
2024-03-19T06:40:43.126Z,100940.33248984668
2024-03-19T06:43:40.737Z,100941.05978660262
2024-03-19T06:46:37.246Z,100944.75708100412
2024-03-19T06:49:32.832Z,100950.90519641191
2024-03-19T06:52:28.368Z,100943.15286750109
2024-03-19T06:55:23.940Z,100942.15480332111
2024-03-19T06:58:21.492Z,100947.66473146815
2024-03-19T07:01:19.047Z,100945.1201704551
2024-03-19T07:04:14.588Z,100962.70449983982
2024-03-19T07:07:14.156Z,100957.37081285662
2024-03-19T07:10:10.765Z,100957.2555063212
2024-03-19T07:13:07.255Z,100967.80687975002
2024-03-19T07:16:04.829Z,100968.85045441675
2024-03-19T07:19:00.358Z,100977.15452311808
2024-03-19T07:21:57.949Z,100977.18854372183
2024-03-19T07:24:54.472Z,100989.2365748031
2024-03-19T07:27:50.115Z,100986.19864597019
2024-03-19T07:30:46.620Z,100992.09542524668
2024-03-19T07:33:42.182Z,100989.8989058387
2024-03-19T07:36:40.725Z,101000.3904046044
2024-03-19T07:39:36.311Z,101004.62361837656
2024-03-19T07:42:32.901Z,101008.51632422455
2024-03-19T07:45:28.487Z,101015.05229332994
2024-03-19T07:48:28.037Z,101020.59563988431
2024-03-19T07:51:27.505Z,101014.69596845785
2024-03-19T07:54:29.136Z,101021.86396942374
2024-03-19T07:57:25.612Z,101028.3008143014
2024-03-19T08:00:26.152Z,101028.12636087167
2024-03-19T08:03:22.768Z,101030.29383702275
2024-03-19T08:06:32.291Z,101031.76108634527
2024-03-19T08:09:29.826Z,101034.32306918818
2024-03-19T08:12:27.972Z,101039.13019153048
2024-03-19T08:15:23.922Z,101042.33027316458
2024-03-19T08:18:19.459Z,101049.76526171529
2024-03-19T08:21:17.069Z,101048.9750411906
2024-03-19T08:24:16.561Z,101045.73078138365
2024-03-19T08:27:17.515Z,101037.26053870571
2024-03-19T08:30:13.735Z,101042.71749509934
2024-03-19T08:33:11.267Z,101049.85674591809
2024-03-19T08:36:08.808Z,101048.5842843914
2024-03-19T08:39:08.362Z,101053.74578070005
2024-03-19T08:42:06.922Z,101049.86536301534
2024-03-19T08:45:11.472Z,101049.59195680107
2024-03-19T08:48:10.019Z,101051.58068797823
2024-03-19T08:51:07.572Z,101050.02578581202
2024-03-19T08:54:03.089Z,101053.38107633247
2024-03-19T08:57:02.702Z,101044.42709013507
2024-03-19T09:00:02.234Z,101056.68997100237
2024-03-19T09:03:02.785Z,101057.9015212491
2024-03-19T09:05:59.379Z,101052.80950683667
2024-03-19T09:08:55.900Z,101061.52215370024
2024-03-19T09:11:52.490Z,101062.78640836605
2024-03-19T09:14:49.042Z,101066.95607631929
2024-03-19T09:17:46.690Z,101063.12502443715
2024-03-19T09:20:45.113Z,101068.80835221075
2024-03-19T09:23:44.976Z,101071.06472970154
2024-03-19T09:26:40.245Z,101071.3496813916
2024-03-19T09:29:37.628Z,101070.56007863635
2024-03-19T09:32:36.346Z,101066.87962333318
2024-03-19T09:35:35.871Z,101070.17210642727
2024-03-19T09:38:34.452Z,101076.10868698763
2024-03-19T09:41:36.019Z,101080.60615763259
2024-03-19T09:44:33.580Z,101074.75205365238
2024-03-19T09:47:32.155Z,101073.13634785566
2024-03-19T09:50:27.711Z,101074.90880168093
2024-03-19T09:53:35.217Z,101074.02007855114
2024-03-19T09:56:30.789Z,101070.00161382236
2024-03-19T09:59:29.386Z,101074.39474819231
2024-03-19T10:02:27.876Z,101069.03745771691
2024-03-19T10:05:24.476Z,101070.25920608123
2024-03-19T10:08:21.976Z,101077.56613878558
2024-03-19T10:11:20.534Z,101081.89117296082
2024-03-19T10:14:16.098Z,101085.80269130321
2024-03-19T10:17:14.705Z,101083.40139461898
2024-03-19T10:20:12.255Z,101080.77874897528
2024-03-19T10:23:10.771Z,101083.83868922
2024-03-19T10:26:09.351Z,101087.68610634163
2024-03-19T10:29:07.504Z,101086.41671107076
2024-03-19T10:32:14.929Z,101083.95755997646
2024-03-19T10:35:19.011Z,101088.08726767058
2024-03-19T10:38:25.175Z,101086.80302605774
2024-03-19T10:41:31.005Z,101092.5573435148
2024-03-19T10:44:36.636Z,101100.3653836727
2024-03-19T10:47:35.141Z,101098.0377140637
2024-03-19T10:50:32.665Z,101100.59557577415
2024-03-19T10:53:35.237Z,101103.90216773559
2024-03-19T10:56:35.766Z,101102.1596181196
2024-03-19T10:59:38.316Z,101105.78730753901
2024-03-19T11:02:46.790Z,101099.68995564191
2024-03-19T11:05:52.412Z,101106.62447881149
2024-03-19T11:08:53.937Z,101103.9719078303
2024-03-19T11:11:51.481Z,101100.78207554469
2024-03-19T11:14:55.507Z,101103.42679296415
2024-03-19T11:17:52.595Z,101102.26662628668
2024-03-19T11:20:52.126Z,101105.63809288546
2024-03-19T11:23:52.666Z,101097.32660404236
2024-03-19T11:26:48.230Z,101113.69067501953
2024-03-19T11:29:49.811Z,101110.0281343641
2024-03-19T11:32:54.326Z,101109.51136634151
2024-03-19T11:35:53.856Z,101104.08344136375
2024-03-19T11:38:55.475Z,101091.40526970306
2024-03-19T11:41:56.010Z,101078.40893103089
2024-03-19T11:44:52.515Z,101093.27445379872
2024-03-19T11:47:50.455Z,101090.35180504245
2024-03-19T11:50:54.614Z,101093.78270514365
2024-03-19T11:53:59.175Z,101093.52120531932
2024-03-19T11:56:59.734Z,101084.21871488876
2024-03-19T11:59:56.939Z,101082.48484034301
2024-03-19T12:02:54.823Z,101085.79992450295
2024-03-19T12:05:52.336Z,101083.03201430418
2024-03-19T12:08:49.920Z,101083.72482760639
2024-03-19T12:11:48.495Z,101076.45768251715
2024-03-19T12:14:47.004Z,101085.46548257236
2024-03-19T12:17:46.617Z,101085.61104357969
2024-03-19T12:20:46.333Z,101077.77381994185
2024-03-19T12:23:45.660Z,101080.8642362366
2024-03-19T12:26:44.215Z,101075.00566140296
2024-03-19T12:29:43.783Z,101085.16457309529
2024-03-19T12:32:49.656Z,101089.20726387434
2024-03-19T12:35:45.865Z,101088.03372536844
2024-03-19T12:38:46.818Z,101079.38290491185
2024-03-19T12:41:46.018Z,101088.41643963284
2024-03-19T12:44:47.763Z,101085.25368346508
2024-03-19T12:47:45.075Z,101085.74601240963
2024-03-19T12:50:43.704Z,101083.8709051579
2024-03-19T12:53:41.167Z,101077.62076964577
2024-03-19T12:56:40.441Z,101075.47537645562
2024-03-19T12:59:38.325Z,101082.95580790416
2024-03-19T13:02:34.863Z,101076.01589759502
2024-03-19T13:05:30.417Z,101073.53684640041
2024-03-19T13:08:28.029Z,101072.64624615856
2024-03-19T13:11:24.543Z,101067.75981592158
2024-03-19T13:14:21.134Z,101074.17513732676
2024-03-19T13:17:16.696Z,101070.25920608123
2024-03-19T13:20:12.266Z,101070.37616046419
2024-03-19T13:23:09.812Z,101075.14502599374
2024-03-19T13:26:10.324Z,101065.56937869864
2024-03-19T13:29:05.878Z,101067.75522018303
2024-03-19T13:32:01.512Z,101065.85880812236
2024-03-19T13:34:59.033Z,101069.28056282314
2024-03-19T13:37:55.685Z,101071.9663935689
2024-03-19T13:40:52.131Z,101071.10168614429
2024-03-19T13:43:47.673Z,101062.80982715836
2024-03-19T13:46:48.265Z,101070.32553690673
2024-03-19T13:49:59.562Z,101072.49452038438
2024-03-19T13:52:57.347Z,101074.62383909758
2024-03-19T13:55:53.851Z,101070.78179199043
2024-03-19T13:58:50.441Z,101069.45686969627
2024-03-19T14:01:48.023Z,101067.53137579787
2024-03-19T14:04:44.539Z,101056.6710023563
2024-03-19T14:07:40.093Z,101059.45838385848
2024-03-19T14:10:38.727Z,101057.30435340009
2024-03-19T14:13:35.219Z,101076.63659605786
2024-03-19T14:16:31.791Z,101075.92969602649
2024-03-19T14:19:28.354Z,101084.96495311604
2024-03-19T14:22:29.883Z,101083.39044487254
2024-03-19T14:25:25.408Z,101080.44657378408
2024-03-19T14:28:21.986Z,101075.17507802682
2024-03-19T14:31:26.558Z,101071.51067847262
2024-03-19T14:34:25.094Z,101065.18442566523
2024-03-19T14:37:20.707Z,101065.49358256825
2024-03-19T14:40:17.223Z,101072.58831851353
2024-03-19T14:43:12.781Z,101077.27353094191
2024-03-19T14:46:10.357Z,101073.86664455847
2024-03-19T14:49:08.900Z,101075.7744156998
2024-03-19T14:52:05.447Z,101073.52351695391
2024-03-19T14:55:02.021Z,101076.70596631493
2024-03-19T14:58:01.576Z,101076.04196426796
2024-03-19T15:00:57.129Z,101084.19014645155
2024-03-19T15:03:52.787Z,101071.14740481741
2024-03-19T15:06:48.622Z,101072.30438078514
2024-03-19T15:09:48.832Z,101071.43128773152
2024-03-19T15:12:46.345Z,101085.89999114185
2024-03-19T15:15:45.920Z,101075.62154023508
2024-03-19T15:18:42.460Z,101077.17083393568
2024-03-19T15:21:38.999Z,101084.65043690051
2024-03-19T15:24:34.545Z,101081.53026911219
2024-03-19T15:27:30.164Z,101083.55989411839
2024-03-19T15:30:27.680Z,101077.0511239423
2024-03-19T15:33:23.295Z,101082.35863783577
2024-03-19T15:36:18.833Z,101082.06486911375
2024-03-19T15:39:15.710Z,101080.85774198995
2024-03-19T15:42:11.009Z,101078.49077475458
2024-03-19T15:45:11.486Z,101084.17018619082
2024-03-19T15:48:08.101Z,101085.80836329029
2024-03-19T15:51:06.641Z,101085.42883016763
2024-03-19T15:54:02.159Z,101085.63262005203
2024-03-19T15:56:59.726Z,101098.36683926864
2024-03-19T15:59:56.274Z,101090.84264815706
2024-03-19T16:02:57.821Z,101097.07196892335
2024-03-19T16:05:53.382Z,101101.6827602973
2024-03-19T16:08:54.942Z,101108.6920646121
2024-03-19T16:11:51.523Z,101114.0574481203
2024-03-19T16:14:47.071Z,101105.41148797634
2024-03-19T16:17:47.558Z,101112.32785689873
2024-03-19T16:20:44.167Z,101117.45236368789
2024-03-19T16:23:44.719Z,101111.4508578941
2024-03-19T16:26:40.492Z,101114.87419652237
2024-03-19T16:29:35.797Z,101117.49376451984
2024-03-19T16:32:33.389Z,101127.92754753056
2024-03-19T16:35:28.966Z,101128.3250603323
2024-03-19T16:38:26.537Z,101130.73729491678
2024-03-19T16:41:22.078Z,101129.15098105367
2024-03-19T16:44:22.608Z,101130.21986807666
2024-03-19T16:47:18.137Z,101140.30611425365
2024-03-19T16:50:16.088Z,101149.31405940029
2024-03-19T16:53:11.310Z,101152.20826968629
2024-03-19T16:56:08.852Z,101154.63380846694
2024-03-19T16:59:05.445Z,101150.67837858369
2024-03-19T17:02:07.959Z,101162.23005755887
2024-03-19T17:05:09.508Z,101162.01951278983
2024-03-19T17:08:10.262Z,101166.6736847588
2024-03-19T17:11:06.610Z,101165.90493505566
2024-03-19T17:14:06.158Z,101164.03416183856
2024-03-19T17:17:04.726Z,101172.02321906414
2024-03-19T17:20:11.078Z,101170.53588234664
2024-03-19T17:23:14.848Z,101179.98654919978
2024-03-19T17:26:14.315Z,101182.56916866018
2024-03-19T17:29:10.926Z,101181.06193336693
2024-03-19T17:32:11.416Z,101178.46697737195
2024-03-19T17:35:13.013Z,101183.71446446485
2024-03-19T17:38:18.542Z,101177.62762401103
2024-03-19T17:41:16.090Z,101191.77399433337
2024-03-19T17:44:17.379Z,101198.01744152005
2024-03-19T17:47:20.164Z,101204.32547198853
2024-03-19T17:50:19.732Z,101205.58585204202
2024-03-19T17:53:19.281Z,101209.16695817564
2024-03-19T17:56:21.734Z,101210.31693835167
2024-03-19T17:59:20.402Z,101216.67901363938
2024-03-19T18:02:20.906Z,101217.74440231445
2024-03-19T18:05:16.587Z,101221.95974377947
2024-03-19T18:08:13.059Z,101227.35744815705
2024-03-19T18:11:09.602Z,101227.972683319
2024-03-19T18:14:06.147Z,101230.77512145216
2024-03-19T18:17:05.709Z,101227.45824501527
2024-03-19T18:20:01.278Z,101231.95768386638
2024-03-19T18:23:07.798Z,101246.35671342352
2024-03-19T18:26:08.374Z,101243.14394199065
2024-03-19T18:29:08.914Z,101245.36852951297
2024-03-19T18:32:07.932Z,101243.2999541006
2024-03-19T18:35:06.025Z,101249.8959053216
2024-03-19T18:38:04.555Z,101255.75950609859
2024-03-19T18:41:01.134Z,101259.85982258
2024-03-19T18:44:04.666Z,101259.8416221911
2024-03-19T18:47:11.011Z,101260.40525662887
2024-03-19T18:50:09.573Z,101264.37634221849
2024-03-19T18:53:11.339Z,101267.58799688306
2024-03-19T18:56:15.891Z,101267.73969519872
2024-03-19T18:59:13.409Z,101273.62254084989
2024-03-19T19:02:08.962Z,101269.93319622926
2024-03-19T19:05:12.510Z,101278.2389002931
2024-03-19T19:08:08.185Z,101281.94497288631
2024-03-19T19:11:05.692Z,101286.56917428887
2024-03-19T19:14:02.184Z,101278.7938910341
2024-03-19T19:17:08.192Z,101279.22535783866
2024-03-19T19:20:05.283Z,101278.63249089346
2024-03-19T19:23:02.809Z,101287.33765969984
2024-03-19T19:26:00.422Z,101291.32083700568
2024-03-19T19:29:10.715Z,101300.9260543976
2024-03-19T19:32:15.480Z,101296.60378425434
2024-03-19T19:35:24.990Z,101302.43260269421
2024-03-19T19:38:31.253Z,101301.48144117768
2024-03-19T19:41:49.539Z,101309.84053724656
2024-03-19T19:44:45.589Z,101309.17460476099
2024-03-19T19:47:42.170Z,101310.23496921537
2024-03-19T19:50:44.700Z,101307.37296005046
2024-03-19T19:53:45.206Z,101305.6560026524
2024-03-19T19:56:49.060Z,101306.42552995162
2024-03-19T19:59:57.098Z,101313.90034072695
2024-03-19T20:02:57.827Z,101319.79531110812
2024-03-19T20:05:57.392Z,101322.88042921899
2024-03-19T20:08:54.995Z,101328.8290214505
2024-03-19T20:12:00.492Z,101325.2367411622
2024-03-19T20:14:59.068Z,101314.42677890744
2024-03-19T20:17:55.594Z,101323.65688786453
2024-03-19T20:20:59.155Z,101329.46936752647
2024-03-19T20:24:00.714Z,101333.49882782825
2024-03-19T20:26:57.274Z,101340.48444417774
2024-03-19T20:29:57.815Z,101327.62683454945
2024-03-19T20:32:56.399Z,101340.42387123263
2024-03-19T20:35:57.963Z,101331.82560196368
2024-03-19T20:38:59.462Z,101339.4945085635
2024-03-19T20:42:00.987Z,101338.98327696491
2024-03-19T20:44:59.561Z,101341.89901788195
2024-03-19T20:48:06.167Z,101348.30146875499
2024-03-19T20:51:09.664Z,101345.92905452904
2024-03-19T20:54:09.176Z,101346.8893906773
2024-03-19T20:57:10.753Z,101349.66720516387
2024-03-19T21:00:16.605Z,101348.2654919497
2024-03-19T21:03:18.796Z,101348.26088598742
2024-03-19T21:07:02.200Z,101348.1216556447
2024-03-19T21:10:02.721Z,101346.85553967128
2024-03-19T21:12:58.358Z,101341.80989651356
2024-03-19T21:15:53.895Z,101343.48479413727
2024-03-19T21:18:55.450Z,101346.33771381731
2024-03-19T21:21:52.019Z,101336.8768184468
2024-03-19T21:24:49.934Z,101342.3986868302
2024-03-19T21:27:45.095Z,101345.1575186481
2024-03-19T21:30:44.702Z,101348.04859702973
2024-03-19T21:33:42.676Z,101343.2163616532
2024-03-19T21:36:44.780Z,101346.57030544928
2024-03-19T21:39:41.382Z,101348.28274851345
2024-03-19T21:42:36.913Z,101342.36526750369
2024-03-19T21:48:39.015Z,101346.46619365209
2024-03-19T21:51:35.528Z,101351.36151503395
2024-03-19T21:54:32.125Z,101344.63237481323
2024-03-19T21:57:31.680Z,101342.86795286923
2024-03-19T22:00:32.218Z,101342.98181639978
2024-03-19T22:03:31.789Z,101350.1446699075
2024-03-19T22:09:32.871Z,101361.14467605318
2024-03-19T22:12:32.762Z,101356.88121755308
2024-03-19T22:18:37.555Z,101359.62272753831
2024-03-19T22:21:33.050Z,101350.92905440571
2024-03-19T22:24:31.707Z,101354.31695090173
2024-03-19T22:27:28.205Z,101350.68489084467
2024-03-19T22:30:24.729Z,101347.7387322583
2024-03-19T22:33:20.299Z,101345.8816620153
2024-03-19T22:36:15.917Z,101351.1731087621
2024-03-19T22:39:23.427Z,101353.26597115818
2024-03-19T22:42:20.057Z,101354.07985123708
2024-03-19T22:45:15.505Z,101348.25596090044
2024-03-19T22:48:11.076Z,101350.8575532045
2024-03-19T22:51:06.649Z,101349.7738711369
2024-03-19T22:54:02.186Z,101346.88904410014
2024-03-19T22:56:58.768Z,101354.14734419437
2024-03-19T23:03:06.827Z,101351.11227929284
2024-03-19T23:06:05.374Z,101354.81108514771
2024-03-19T23:09:02.945Z,101356.574103626
2024-03-19T23:11:58.487Z,101357.8433238517
2024-03-19T23:14:55.066Z,101362.22299233955
2024-03-19T23:17:52.928Z,101359.43207765644
2024-03-19T23:20:48.201Z,101353.06867034115
2024-03-19T23:23:46.708Z,101357.37725172144
2024-03-19T23:26:42.314Z,101348.86533515903
2024-03-19T23:29:38.837Z,101352.29526649443
2024-03-19T23:32:35.543Z,101351.67069501504
2024-03-19T23:35:30.930Z,101349.65283848978
2024-03-19T23:38:26.502Z,101354.22554779051
2024-03-19T23:41:24.080Z,101356.93682892525
2024-03-19T23:44:19.695Z,101353.43965241953
2024-03-19T23:47:16.221Z,101351.08166678739
2024-03-19T23:50:11.788Z,101345.47063413111
2024-03-19T23:53:10.303Z,101347.43734488027
2024-03-19T23:56:08.863Z,101342.49609821787
2024-03-19T23:59:05.446Z,101343.24631692548
